createdAt,value
2016-12-08T09:24:13.948Z,9.02
2016-12-08T09:24:57.997Z,9.03
2016-12-08T09:25:38.321Z,9
2016-12-08T09:26:18.859Z,9.02
2016-12-08T09:26:59.342Z,9.04
2016-12-08T09:27:39.835Z,9.04
2016-12-08T09:28:20.301Z,9.11
2016-12-08T09:29:00.769Z,9.13
2016-12-08T09:29:41.276Z,9.13
2016-12-08T09:30:21.737Z,9.14
2016-12-08T09:31:04.210Z,9.18
2016-12-08T09:31:44.825Z,9.19
2016-12-08T09:32:28.315Z,9.23
2016-12-08T09:33:08.831Z,9.28
2016-12-08T09:33:49.309Z,9.19
2016-12-08T09:34:29.812Z,9.31
2016-12-08T09:35:10.289Z,9.34
2016-12-08T09:35:50.779Z,9.26
2016-12-08T09:36:31.288Z,9.31
2016-12-08T09:37:12.690Z,9.31
2016-12-08T09:37:53.267Z,9.34
2016-12-08T09:38:33.763Z,9.37
2016-12-08T09:39:14.403Z,9.37
2016-12-08T09:39:54.934Z,9.44
2016-12-08T09:40:37.201Z,9.47
2016-12-08T09:41:17.749Z,9.36
2016-12-08T09:41:58.222Z,9.41
2016-12-08T09:42:38.763Z,9.4
2016-12-08T09:43:19.256Z,9.43
2016-12-08T09:43:59.735Z,9.43
2016-12-08T09:44:40.219Z,9.4
2016-12-08T09:45:20.703Z,9.4
2016-12-08T09:46:01.184Z,9.44
2016-12-08T09:46:41.671Z,9.48
2016-12-08T09:47:22.129Z,9.39
2016-12-08T09:48:02.655Z,9.51
2016-12-08T09:48:43.168Z,9.46
2016-12-08T09:49:23.713Z,9.51
2016-12-08T09:50:04.282Z,9.51
2016-12-08T09:50:44.781Z,9.51
2016-12-08T09:51:25.253Z,9.55
2016-12-08T09:52:05.747Z,9.48
2016-12-08T09:52:46.225Z,9.51
2016-12-08T09:53:26.867Z,9.48
2016-12-08T09:54:07.334Z,9.51
2016-12-08T09:54:47.842Z,9.48
2016-12-08T09:55:28.313Z,9.55
2016-12-08T09:56:08.757Z,9.54
2016-12-08T09:56:49.317Z,9.55
2016-12-08T09:57:29.783Z,9.55
2016-12-08T09:58:10.234Z,9.58
2016-12-08T09:58:50.752Z,9.68
2016-12-08T09:59:31.250Z,9.61
2016-12-08T10:00:11.761Z,9.59
2016-12-08T10:00:52.253Z,9.65
2016-12-08T10:01:32.803Z,9.66
2016-12-08T10:02:13.278Z,9.58
2016-12-08T10:03:00.451Z,9.59
2016-12-08T10:03:40.961Z,9.59
2016-12-08T10:04:21.391Z,9.66
2016-12-08T10:05:01.880Z,9.62
2016-12-08T10:05:42.455Z,9.72
2016-12-08T10:06:22.891Z,9.59
2016-12-08T10:07:03.370Z,9.62
2016-12-08T10:07:43.850Z,9.64
2016-12-08T10:08:24.341Z,9.66
2016-12-08T10:09:04.795Z,9.62
2016-12-08T10:09:45.303Z,9.58
2016-12-08T10:10:25.786Z,9.61
2016-12-08T10:11:06.280Z,9.72
2016-12-08T10:11:46.769Z,9.72
2016-12-08T10:12:27.290Z,9.69
2016-12-08T10:13:07.726Z,9.69
2016-12-08T10:13:49.054Z,9.72
2016-12-08T10:14:30.470Z,9.66
2016-12-08T10:15:11.034Z,9.69
2016-12-08T10:15:51.510Z,9.76
2016-12-08T10:16:32.800Z,9.72
2016-12-08T10:17:13.313Z,9.77
2016-12-08T10:17:53.807Z,9.73
2016-12-08T10:18:34.298Z,9.69
2016-12-08T10:19:14.735Z,9.74
2016-12-08T10:19:55.253Z,9.8
2016-12-08T10:20:37.122Z,9.82
2016-12-08T10:21:18.283Z,9.89
2016-12-08T10:21:58.767Z,9.84
2016-12-08T10:22:39.253Z,9.77
2016-12-08T10:23:20.654Z,9.91
2016-12-08T10:24:01.130Z,9.83
2016-12-08T10:24:41.602Z,9.91
2016-12-08T10:25:22.095Z,9.95
2016-12-08T10:26:02.546Z,9.97
2016-12-08T10:26:43.028Z,9.97
2016-12-08T10:27:23.507Z,9.95
2016-12-08T10:28:03.998Z,9.95
2016-12-08T10:28:44.544Z,9.97
2016-12-08T10:29:24.983Z,9.97
2016-12-08T10:30:05.520Z,9.99
2016-12-08T10:30:45.993Z,9.97
2016-12-08T10:31:26.505Z,9.95
2016-12-08T10:32:06.918Z,9.98
2016-12-08T10:32:48.221Z,9.92
2016-12-08T10:33:28.696Z,9.98
2016-12-08T10:34:09.190Z,9.99
2016-12-08T10:34:49.681Z,10.01
2016-12-08T10:35:30.172Z,9.95
2016-12-08T10:36:12.571Z,9.98
2016-12-08T10:36:53.017Z,9.97
2016-12-08T10:37:33.508Z,10.04
2016-12-08T10:38:14.000Z,10.01
2016-12-08T10:38:54.472Z,10.04
2016-12-08T10:39:34.997Z,9.99
2016-12-08T10:40:15.493Z,9.99
2016-12-08T10:40:55.978Z,9.99
2016-12-08T10:41:36.483Z,9.95
2016-12-08T10:42:16.996Z,9.97
2016-12-08T10:42:57.470Z,9.97
2016-12-08T10:43:39.711Z,9.95
2016-12-08T10:44:20.236Z,10.02
2016-12-08T10:45:00.742Z,9.89
2016-12-08T10:45:41.284Z,9.94
2016-12-08T10:46:21.767Z,9.92
2016-12-08T10:47:02.237Z,9.97
2016-12-08T10:47:42.708Z,9.92
2016-12-08T10:48:23.213Z,9.92
2016-12-08T10:49:03.692Z,9.92
2016-12-08T10:49:44.225Z,9.97
2016-12-08T10:50:24.710Z,9.99
2016-12-08T10:51:05.224Z,9.98
2016-12-08T10:51:45.769Z,9.94
2016-12-08T10:52:26.262Z,9.97
2016-12-08T10:53:09.486Z,9.97
2016-12-08T10:53:58.153Z,10.01
2016-12-08T10:54:46.700Z,9.98
2016-12-08T10:55:35.331Z,10.05
2016-12-08T10:56:27.229Z,10.01
2016-12-08T10:57:08.310Z,9.95
2016-12-08T10:57:52.666Z,10.02
2016-12-08T10:58:32.429Z,10.12
2016-12-08T10:59:13.796Z,10.07
2016-12-08T10:59:54.312Z,10.16
2016-12-08T11:01:41.675Z,10.19
2016-12-08T11:02:22.713Z,10.26
2016-12-08T11:03:10.658Z,10.22
2016-12-08T11:04:50.937Z,10.25
2016-12-08T11:05:39.381Z,10.35
2016-12-08T11:06:26.084Z,10.37
2016-12-08T11:07:12.692Z,10.49
2016-12-08T11:07:54.866Z,10.48
2016-12-08T11:08:35.921Z,10.49
2016-12-08T11:09:16.378Z,10.44
2016-12-08T11:09:57.863Z,10.51
2016-12-08T11:10:38.439Z,10.53
2016-12-08T11:11:18.959Z,10.53
2016-12-08T11:11:59.979Z,10.53
2016-12-08T11:12:40.429Z,10.44
2016-12-08T11:13:20.975Z,10.53
2016-12-08T11:14:01.472Z,10.44
2016-12-08T11:14:41.941Z,10.53
2016-12-08T11:15:23.155Z,10.46
2016-12-08T11:16:03.681Z,10.48
2016-12-08T11:16:44.255Z,10.4
2016-12-08T11:17:25.453Z,10.46
2016-12-08T11:18:05.960Z,10.48
2016-12-08T11:18:47.278Z,10.35
2016-12-08T11:19:27.809Z,10.35
2016-12-08T11:20:08.381Z,10.44
2016-12-08T11:20:48.875Z,10.44
2016-12-08T11:21:29.388Z,10.49
2016-12-08T11:22:09.873Z,10.44
2016-12-08T11:22:50.372Z,10.37
2016-12-08T11:23:30.860Z,10.35
2016-12-08T11:24:11.351Z,10.34
2016-12-08T11:24:51.849Z,10.35
2016-12-08T11:25:32.324Z,10.34
2016-12-08T11:26:12.814Z,10.26
2016-12-08T11:26:53.300Z,10.34
2016-12-08T11:27:33.787Z,10.37
2016-12-08T11:28:14.271Z,10.34
2016-12-08T11:28:54.780Z,10.38
2016-12-08T11:29:35.254Z,10.31
2016-12-08T11:30:15.744Z,10.35
2016-12-08T11:30:56.323Z,10.26
2016-12-08T11:31:36.827Z,10.35
2016-12-08T11:32:20.181Z,10.25
2016-12-08T11:33:08.608Z,10.28
2016-12-08T11:34:00.241Z,10.2
2016-12-08T11:34:50.790Z,10.25
2016-12-08T11:35:41.317Z,10.22
2016-12-08T11:36:31.332Z,10.17
2016-12-08T11:37:19.657Z,10.15
2016-12-08T11:38:14.132Z,10.15
2016-12-08T11:39:01.646Z,10.17
2016-12-08T11:39:51.947Z,10.16
2016-12-08T11:40:37.742Z,10.05
2016-12-08T11:41:24.171Z,10.09
2016-12-08T11:42:05.112Z,10.1
2016-12-08T11:42:46.024Z,10.1
2016-12-08T11:43:27.104Z,10.07
2016-12-08T11:44:12.210Z,10.09
2016-12-08T11:44:54.468Z,10.01
2016-12-08T11:45:35.313Z,9.89
2016-12-08T11:46:16.011Z,9.97
2016-12-08T11:46:56.735Z,9.99
2016-12-08T11:47:41.207Z,9.94
2016-12-08T11:48:21.930Z,9.91
2016-12-08T11:49:02.440Z,9.94
2016-12-08T11:49:42.938Z,9.84
2016-12-08T11:50:23.437Z,9.86
2016-12-08T11:51:03.935Z,9.84
2016-12-08T11:51:44.476Z,9.84
2016-12-08T11:52:24.981Z,9.83
2016-12-08T11:53:05.475Z,9.8
2016-12-08T11:53:45.968Z,9.79
2016-12-08T11:54:26.457Z,9.84
2016-12-08T11:55:06.946Z,9.68
2016-12-08T11:55:47.461Z,9.77
2016-12-08T11:56:27.932Z,9.74
2016-12-08T11:57:08.409Z,9.68
2016-12-08T11:57:48.915Z,9.69
2016-12-08T11:58:29.480Z,9.69
2016-12-08T11:59:09.901Z,9.66
2016-12-08T11:59:50.391Z,9.61
2016-12-08T12:00:30.909Z,9.61
2016-12-08T12:01:11.374Z,9.73
2016-12-08T12:01:51.918Z,9.69
2016-12-08T12:02:32.367Z,9.68
2016-12-08T12:03:12.875Z,9.69
2016-12-08T12:03:53.419Z,9.74
2016-12-08T12:04:34.048Z,9.73
2016-12-08T12:05:14.549Z,9.79
2016-12-08T12:05:55.052Z,9.77
2016-12-08T12:06:35.588Z,9.89
2016-12-08T12:07:20.352Z,9.89
2016-12-08T12:08:04.488Z,9.84
2016-12-08T12:08:46.158Z,9.89
2016-12-08T12:09:26.658Z,9.89
2016-12-08T12:10:07.140Z,9.94
2016-12-08T12:10:47.641Z,9.87
2016-12-08T12:11:28.136Z,9.87
2016-12-08T12:12:08.596Z,9.92
2016-12-08T12:12:49.103Z,9.97
2016-12-08T12:13:29.610Z,9.95
2016-12-08T12:14:10.109Z,9.95
2016-12-08T12:14:50.594Z,10.02
2016-12-08T12:15:31.071Z,9.95
2016-12-08T12:16:11.597Z,9.99
2016-12-08T12:16:52.129Z,10.02
2016-12-08T12:17:32.738Z,9.95
2016-12-08T12:18:13.237Z,9.94
2016-12-08T12:18:53.756Z,9.92
2016-12-08T12:19:34.260Z,9.94
2016-12-08T12:20:14.774Z,9.87
2016-12-08T12:20:55.297Z,9.87
2016-12-08T12:21:35.810Z,9.83
2016-12-08T12:22:16.295Z,9.87
2016-12-08T12:22:56.803Z,9.92
2016-12-08T12:23:37.316Z,9.87
2016-12-08T12:24:17.894Z,9.83
2016-12-08T12:24:58.427Z,9.83
2016-12-08T12:25:38.925Z,9.8
2016-12-08T12:26:19.436Z,9.76
2016-12-08T12:26:59.951Z,9.73
2016-12-08T12:27:40.707Z,9.83
2016-12-08T12:28:21.282Z,9.83
2016-12-08T12:29:01.781Z,9.73
2016-12-08T12:29:42.332Z,9.74
2016-12-08T12:30:22.818Z,9.76
2016-12-08T12:31:03.321Z,9.79
2016-12-08T12:31:43.826Z,9.73
2016-12-08T12:32:24.325Z,9.76
2016-12-08T12:33:04.918Z,9.73
2016-12-08T12:33:45.430Z,9.69
2016-12-08T12:34:25.903Z,9.72
2016-12-08T12:35:06.407Z,9.69
2016-12-08T12:35:46.892Z,9.69
2016-12-08T12:36:27.345Z,9.72
2016-12-08T12:37:07.840Z,9.62
2016-12-08T12:37:48.365Z,9.74
2016-12-08T12:38:28.863Z,9.73
2016-12-08T12:39:09.375Z,9.73
2016-12-08T12:39:49.814Z,9.68
2016-12-08T12:40:30.299Z,9.69
2016-12-08T12:42:29.539Z,9.72
2016-12-08T12:43:10.143Z,9.65
2016-12-08T12:43:50.534Z,9.72
2016-12-08T12:44:31.007Z,9.72
2016-12-08T12:45:11.504Z,9.68
2016-12-08T12:45:52.010Z,9.69
2016-12-08T12:46:32.499Z,9.65
2016-12-08T12:47:13.035Z,9.69
2016-12-08T12:47:53.517Z,9.58
2016-12-08T12:48:34.022Z,9.64
2016-12-08T12:49:14.543Z,9.64
2016-12-08T12:49:55.033Z,9.62
2016-12-08T12:50:35.495Z,9.65
2016-12-08T12:51:15.995Z,9.62
2016-12-08T12:51:56.478Z,9.65
2016-12-08T12:52:36.978Z,9.59
2016-12-08T12:53:17.478Z,9.56
2016-12-08T12:53:58.018Z,9.5
2016-12-08T12:54:38.483Z,9.48
2016-12-08T12:55:19.108Z,9.55
2016-12-08T12:55:59.626Z,9.59
2016-12-08T12:56:40.093Z,9.55
2016-12-08T12:57:20.583Z,9.55
2016-12-08T12:58:01.081Z,9.5
2016-12-08T12:58:41.567Z,9.48
2016-12-08T12:59:22.085Z,9.58
2016-12-08T13:00:02.550Z,9.48
2016-12-08T13:00:43.020Z,9.55
2016-12-08T13:01:23.524Z,9.54
2016-12-08T13:02:04.016Z,9.5
2016-12-08T13:02:44.572Z,9.51
2016-12-08T13:03:25.119Z,9.54
2016-12-08T13:04:05.623Z,9.59
2016-12-08T13:04:47.063Z,9.56
2016-12-08T13:05:27.523Z,9.5
2016-12-08T13:06:08.170Z,9.55
2016-12-08T13:06:48.613Z,9.55
2016-12-08T13:07:29.144Z,9.48
2016-12-08T13:08:09.745Z,9.55
2016-12-08T13:08:50.927Z,9.54
2016-12-08T13:09:31.386Z,9.44
2016-12-08T13:10:11.898Z,9.48
2016-12-08T13:10:52.624Z,9.41
2016-12-08T13:11:33.229Z,9.4
2016-12-08T13:12:13.805Z,9.37
2016-12-08T13:12:54.347Z,9.4
2016-12-08T13:13:34.868Z,9.43
2016-12-08T13:14:15.359Z,9.4
2016-12-08T13:14:55.846Z,9.39
2016-12-08T13:15:36.345Z,9.44
2016-12-08T13:16:16.832Z,9.4
2016-12-08T13:16:57.521Z,9.4
2016-12-08T13:17:38.012Z,9.36
2016-12-08T13:18:18.497Z,9.37
2016-12-08T13:18:59.008Z,9.41
2016-12-08T13:19:39.485Z,9.32
2016-12-08T13:20:19.955Z,9.37
2016-12-08T13:21:00.416Z,9.44
2016-12-08T13:21:40.925Z,9.36
2016-12-08T13:22:21.445Z,9.39
2016-12-08T13:23:01.916Z,9.41
2016-12-08T13:23:42.373Z,9.43
2016-12-08T13:24:22.885Z,9.39
2016-12-08T13:25:03.316Z,9.4
2016-12-08T13:25:43.804Z,9.4
2016-12-08T13:26:24.651Z,9.37
2016-12-08T13:27:05.144Z,9.48
2016-12-08T13:27:45.628Z,9.37
2016-12-08T13:28:26.108Z,9.39
2016-12-08T13:29:06.588Z,9.39
2016-12-08T13:29:47.067Z,9.43
2016-12-08T13:30:27.559Z,9.4
2016-12-08T13:31:08.058Z,9.44
2016-12-08T13:31:48.568Z,9.4
2016-12-08T13:32:29.060Z,9.39
2016-12-08T13:33:09.552Z,9.41
2016-12-08T13:33:50.059Z,9.34
2016-12-08T13:34:31.015Z,9.36
2016-12-08T13:35:12.154Z,9.41
2016-12-08T13:35:52.664Z,9.39
2016-12-08T13:36:33.143Z,9.37
2016-12-08T13:37:13.674Z,9.29
2016-12-08T13:37:54.126Z,9.29
2016-12-08T13:38:34.594Z,9.32
2016-12-08T13:39:15.114Z,9.29
2016-12-08T13:39:55.547Z,9.36
2016-12-08T13:40:36.019Z,9.4
2016-12-08T13:41:16.528Z,9.34
2016-12-08T13:41:57.010Z,9.36
2016-12-08T13:42:37.476Z,9.34
2016-12-08T13:43:17.920Z,9.34
2016-12-08T13:43:58.349Z,9.34
2016-12-08T13:44:38.930Z,9.31
2016-12-08T13:45:19.391Z,9.28
2016-12-08T13:45:59.885Z,9.34
2016-12-08T13:46:40.378Z,9.31
2016-12-08T13:47:20.856Z,9.31
2016-12-08T13:48:01.357Z,9.36
2016-12-08T13:48:41.846Z,9.31
2016-12-08T13:49:22.367Z,9.28
2016-12-08T13:50:03.407Z,9.29
2016-12-08T13:50:43.792Z,9.25
2016-12-08T13:51:24.310Z,9.32
2016-12-08T13:52:04.832Z,9.29
2016-12-08T13:52:46.813Z,9.29
2016-12-08T13:53:27.274Z,9.31
2016-12-08T13:54:07.753Z,9.23
2016-12-08T13:54:48.230Z,9.18
2016-12-08T13:55:28.807Z,9.32
2016-12-08T13:56:09.313Z,9.21
2016-12-08T13:56:49.762Z,9.25
2016-12-08T13:57:30.251Z,9.31
2016-12-08T13:58:10.716Z,9.28
2016-12-08T13:58:51.203Z,9.28
2016-12-08T13:59:31.627Z,9.23
2016-12-08T14:00:12.102Z,9.19
2016-12-08T14:00:52.579Z,9.23
2016-12-08T14:01:33.062Z,9.21
2016-12-08T14:02:13.764Z,9.21
2016-12-08T14:02:54.307Z,9.21
2016-12-08T14:03:39.099Z,9.22
2016-12-08T14:04:19.548Z,9.19
2016-12-08T14:05:00.093Z,9.21
2016-12-08T14:05:40.550Z,9.1
2016-12-08T14:06:21.067Z,9.19
2016-12-08T14:07:01.629Z,9.19
2016-12-08T14:07:42.094Z,8.99
2016-12-08T14:08:22.599Z,9.04
2016-12-08T14:09:03.074Z,9.04
2016-12-08T14:09:43.603Z,9.06
2016-12-08T14:10:24.155Z,9.04
2016-12-08T14:11:04.678Z,9.08
2016-12-08T14:11:45.141Z,9.03
2016-12-08T14:12:25.639Z,9.11
2016-12-08T14:13:06.109Z,9.1
2016-12-08T14:13:46.591Z,9.03
2016-12-08T14:14:27.037Z,8.95
2016-12-08T14:15:07.506Z,9.02
2016-12-08T14:15:48.009Z,9.02
2016-12-08T14:16:28.488Z,9.14
2016-12-08T14:17:08.973Z,8.99
2016-12-08T14:17:49.467Z,8.97
2016-12-08T14:18:29.948Z,9.02
2016-12-08T14:19:10.425Z,8.99
2016-12-08T14:19:50.917Z,9.03
2016-12-08T14:20:31.436Z,9.04
2016-12-08T14:21:11.882Z,8.92
2016-12-08T14:21:52.355Z,8.88
2016-12-08T14:22:32.822Z,8.88
2016-12-08T14:23:13.314Z,8.89
2016-12-08T14:23:53.798Z,8.88
2016-12-08T14:24:34.272Z,8.95
2016-12-08T14:25:14.817Z,8.89
2016-12-08T14:25:55.296Z,8.91
2016-12-08T14:26:35.803Z,8.91
2016-12-08T14:27:16.301Z,8.92
2016-12-08T14:27:56.814Z,8.92
2016-12-08T14:28:37.288Z,8.95
2016-12-08T14:29:17.762Z,8.89
2016-12-08T14:29:58.240Z,8.79
2016-12-08T14:30:38.711Z,8.81
2016-12-08T14:31:19.283Z,8.79
2016-12-08T14:31:59.794Z,8.79
2016-12-08T14:32:40.278Z,8.76
2016-12-08T14:33:21.714Z,8.85
2016-12-08T14:34:08.392Z,8.79
2016-12-08T14:34:59.016Z,8.84
2016-12-08T14:35:49.464Z,8.82
2016-12-08T14:36:39.919Z,8.81
2016-12-08T14:37:24.968Z,8.79
2016-12-08T14:38:09.480Z,8.73
2016-12-08T14:38:56.856Z,8.69
2016-12-08T14:39:43.226Z,8.71
2016-12-08T14:40:30.301Z,8.73
2016-12-08T14:41:10.825Z,8.64
2016-12-08T14:41:51.295Z,8.7
2016-12-08T14:42:31.789Z,8.69
2016-12-08T14:43:12.274Z,8.67
2016-12-08T14:43:52.766Z,8.6
2016-12-08T14:44:33.250Z,8.63
2016-12-08T14:45:13.748Z,8.64
2016-12-08T14:45:54.296Z,8.6
2016-12-08T14:46:34.780Z,8.63
2016-12-08T14:47:15.255Z,8.63
2016-12-08T14:47:55.761Z,8.58
2016-12-08T14:48:36.426Z,8.63
2016-12-08T14:49:16.805Z,8.67
2016-12-08T14:49:57.288Z,8.61
2016-12-08T14:50:37.798Z,8.6
2016-12-08T14:51:18.297Z,8.6
2016-12-08T14:51:58.807Z,8.55
2016-12-08T14:52:39.343Z,8.58
2016-12-08T14:53:19.856Z,8.69
2016-12-08T14:54:00.389Z,8.66
2016-12-08T14:54:40.895Z,8.69
2016-12-08T14:55:21.431Z,8.7
2016-12-08T14:56:01.979Z,8.66
2016-12-08T14:56:42.481Z,8.69
2016-12-08T14:57:22.961Z,8.61
2016-12-08T14:58:03.470Z,8.73
2016-12-08T14:58:43.987Z,8.73
2016-12-08T14:59:24.447Z,8.7
2016-12-08T15:00:04.975Z,8.67
2016-12-08T15:00:45.472Z,8.73
2016-12-08T15:01:25.974Z,8.73
2016-12-08T15:02:06.471Z,8.73
2016-12-08T15:02:48.066Z,8.73
2016-12-08T15:03:30.037Z,8.7
2016-12-08T15:04:11.955Z,8.7
2016-12-08T15:04:53.140Z,8.71
2016-12-08T15:05:34.157Z,8.66
2016-12-08T15:06:16.051Z,8.7
2016-12-08T15:06:57.162Z,8.73
2016-12-08T15:07:38.666Z,8.74
2016-12-08T15:08:19.724Z,8.71
2016-12-08T15:09:01.018Z,8.69
2016-12-08T15:09:42.928Z,8.63
2016-12-08T15:10:24.502Z,8.64
2016-12-08T15:11:05.413Z,8.71
2016-12-08T15:11:46.327Z,8.7
2016-12-08T15:12:28.098Z,8.7
2016-12-08T15:13:09.001Z,8.74
2016-12-08T15:13:49.958Z,8.69
2016-12-08T15:14:30.832Z,8.74
2016-12-08T15:15:11.893Z,8.73
2016-12-08T15:15:54.015Z,8.67
2016-12-08T15:16:34.961Z,8.73
2016-12-08T15:17:15.871Z,8.71
2016-12-08T15:17:58.091Z,8.71
2016-12-08T15:18:38.997Z,8.73
2016-12-08T15:19:19.914Z,8.73
2016-12-08T15:20:01.755Z,8.78
2016-12-08T15:20:42.649Z,8.73
2016-12-08T15:21:23.631Z,8.71
2016-12-08T15:22:04.605Z,8.78
2016-12-08T15:22:45.542Z,8.81
2016-12-08T15:23:26.585Z,8.78
2016-12-08T15:24:07.571Z,8.82
2016-12-08T15:24:50.085Z,8.82
2016-12-08T15:25:30.986Z,8.78
2016-12-08T15:26:12.035Z,8.81
2016-12-08T15:26:53.007Z,8.76
2016-12-08T15:27:33.916Z,8.87
2016-12-08T15:28:14.837Z,8.79
2016-12-08T15:28:55.747Z,8.82
2016-12-08T15:29:36.739Z,8.79
2016-12-08T15:30:17.653Z,8.82
2016-12-08T15:30:59.449Z,8.74
2016-12-08T15:31:40.383Z,8.85
2016-12-08T15:32:22.345Z,8.81
2016-12-08T15:33:04.259Z,8.82
2016-12-08T15:33:45.707Z,8.79
2016-12-08T15:34:27.409Z,8.85
2016-12-08T15:35:07.997Z,8.79
2016-12-08T15:35:48.487Z,8.76
2016-12-08T15:36:28.988Z,8.78
2016-12-08T15:37:09.505Z,8.85
2016-12-08T15:37:50.035Z,8.81
2016-12-08T15:38:30.568Z,8.84
2016-12-08T15:39:17.733Z,8.82
2016-12-08T15:39:57.501Z,8.84
2016-12-08T15:40:38.432Z,8.79
2016-12-08T15:41:19.520Z,8.87
2016-12-08T15:42:00.538Z,8.82
2016-12-08T15:42:42.169Z,8.81
2016-12-08T15:43:23.181Z,8.76
2016-12-08T15:44:05.079Z,8.74
2016-12-08T15:44:45.996Z,8.82
2016-12-08T15:45:26.943Z,8.78
2016-12-08T15:46:07.936Z,8.82
2016-12-08T15:46:49.753Z,8.85
2016-12-08T15:47:30.654Z,8.78
2016-12-08T15:48:13.833Z,8.79
2016-12-08T15:48:54.931Z,8.81
2016-12-08T15:49:36.418Z,8.81
2016-12-08T15:50:16.908Z,8.82
2016-12-08T15:50:57.406Z,8.79
2016-12-08T15:51:37.904Z,8.78
2016-12-08T15:52:22.681Z,8.76
2016-12-08T15:53:04.769Z,8.74
2016-12-08T15:53:45.296Z,8.76
2016-12-08T15:54:25.780Z,8.74
2016-12-08T15:55:06.680Z,8.74
2016-12-08T15:55:47.271Z,8.74
2016-12-08T15:56:27.754Z,8.74
2016-12-08T15:57:08.334Z,8.79
2016-12-08T15:57:48.836Z,8.74
2016-12-08T15:58:29.360Z,8.71
2016-12-08T15:59:09.891Z,8.67
2016-12-08T15:59:50.371Z,8.73
2016-12-08T16:00:30.923Z,8.66
2016-12-08T16:01:11.458Z,8.58
2016-12-08T16:01:51.936Z,8.66
2016-12-08T16:02:32.379Z,8.6
2016-12-08T16:03:12.902Z,8.58
2016-12-08T16:03:53.424Z,8.64
2016-12-08T16:04:33.877Z,8.66
2016-12-08T16:05:14.379Z,8.58
2016-12-08T16:05:54.882Z,8.6
2016-12-08T16:06:35.406Z,8.6
2016-12-08T16:07:15.883Z,8.51
2016-12-08T16:07:56.430Z,8.61
2016-12-08T16:08:36.833Z,8.56
2016-12-08T16:09:17.381Z,8.58
2016-12-08T16:09:57.891Z,8.6
2016-12-08T16:10:38.348Z,8.51
2016-12-08T16:11:18.828Z,8.53
2016-12-08T16:11:59.296Z,8.55
2016-12-08T16:12:39.822Z,8.6
2016-12-08T16:13:20.270Z,8.55
2016-12-08T16:14:00.765Z,8.55
2016-12-08T16:14:41.255Z,8.53
2016-12-08T16:15:21.819Z,8.52
2016-12-08T16:16:02.280Z,8.52
2016-12-08T16:16:42.774Z,8.52
2016-12-08T16:17:23.256Z,8.49
2016-12-08T16:18:03.741Z,8.49
2016-12-08T16:18:44.218Z,8.45
2016-12-08T16:19:24.699Z,8.49
2016-12-08T16:20:05.187Z,8.52
2016-12-08T16:20:45.669Z,8.52
2016-12-08T16:21:26.155Z,8.53
2016-12-08T16:22:06.613Z,8.52
2016-12-08T16:22:47.136Z,8.52
2016-12-08T16:23:27.608Z,8.51
2016-12-08T16:24:08.129Z,8.53
2016-12-08T16:24:48.580Z,8.52
2016-12-08T16:25:29.912Z,8.53
2016-12-08T16:26:10.431Z,8.51
2016-12-08T16:26:50.882Z,8.49
2016-12-08T16:27:31.428Z,8.51
2016-12-08T16:28:11.865Z,8.48
2016-12-08T16:28:52.355Z,8.48
2016-12-08T16:29:32.847Z,8.51
2016-12-08T16:30:13.280Z,8.48
2016-12-08T16:30:53.814Z,8.48
2016-12-08T16:31:34.301Z,8.51
2016-12-08T16:32:14.830Z,8.49
2016-12-08T16:32:55.303Z,8.42
2016-12-08T16:33:35.783Z,8.51
2016-12-08T16:34:16.242Z,8.48
2016-12-08T16:34:56.836Z,8.52
2016-12-08T16:35:37.352Z,8.44
2016-12-08T16:36:17.811Z,8.46
2016-12-08T16:36:58.335Z,8.42
2016-12-08T16:37:38.906Z,8.45
2016-12-08T16:38:19.369Z,8.46
2016-12-08T16:38:59.969Z,8.46
2016-12-08T16:39:40.718Z,8.48
2016-12-08T16:40:21.476Z,8.49
2016-12-08T16:41:02.208Z,8.52
2016-12-08T16:41:42.920Z,8.42
2016-12-08T16:42:23.663Z,8.42
2016-12-08T16:43:04.489Z,8.51
2016-12-08T16:43:45.286Z,8.48
2016-12-08T16:44:26.134Z,8.42
2016-12-08T16:45:06.838Z,8.48
2016-12-08T16:45:47.578Z,8.49
2016-12-08T16:46:28.284Z,8.48
2016-12-08T16:47:09.183Z,8.52
2016-12-08T16:47:49.943Z,8.53
2016-12-08T16:48:30.885Z,8.48
2016-12-08T16:49:11.521Z,8.52
2016-12-08T16:49:51.940Z,8.51
2016-12-08T16:50:32.470Z,8.49
2016-12-08T16:51:12.985Z,8.51
2016-12-08T16:51:53.510Z,8.49
2016-12-08T16:52:33.951Z,8.51
2016-12-08T16:53:14.502Z,8.51
2016-12-08T16:53:54.963Z,8.52
2016-12-08T16:54:35.437Z,8.53
2016-12-08T16:55:15.916Z,8.52
2016-12-08T16:55:56.379Z,8.48
2016-12-08T16:56:36.846Z,8.58
2016-12-08T16:57:17.365Z,8.53
2016-12-08T16:57:57.830Z,8.55
2016-12-08T16:58:38.349Z,8.53
2016-12-08T16:59:18.832Z,8.61
2016-12-08T16:59:59.319Z,8.66
2016-12-08T17:00:39.788Z,8.51
2016-12-08T17:01:20.352Z,8.49
2016-12-08T17:02:00.841Z,8.64
2016-12-08T17:02:41.301Z,8.58
2016-12-08T17:03:21.794Z,8.55
2016-12-08T17:04:02.370Z,8.52
2016-12-08T17:04:42.934Z,8.55
2016-12-08T17:05:23.446Z,8.6
2016-12-08T17:06:03.944Z,8.56
2016-12-08T17:06:44.446Z,8.61
2016-12-08T17:07:24.920Z,8.58
2016-12-08T17:08:05.443Z,8.6
2016-12-08T17:08:46.037Z,8.64
2016-12-08T17:09:26.539Z,8.61
2016-12-08T17:10:07.056Z,8.64
2016-12-08T17:10:47.546Z,8.67
2016-12-08T17:11:28.057Z,8.64
2016-12-08T17:12:08.556Z,8.64
2016-12-08T17:12:49.070Z,8.63
2016-12-08T17:13:29.583Z,8.64
2016-12-08T17:14:10.068Z,8.6
2016-12-08T17:14:50.577Z,8.66
2016-12-08T17:15:30.990Z,8.61
2016-12-08T17:16:11.496Z,8.6
2016-12-08T17:16:52.005Z,8.56
2016-12-08T17:17:32.491Z,8.61
2016-12-08T17:18:13.003Z,8.58
2016-12-08T17:18:53.495Z,8.58
2016-12-08T17:19:33.980Z,8.64
2016-12-08T17:20:14.442Z,8.61
2016-12-08T17:20:54.969Z,8.52
2016-12-08T17:21:35.409Z,8.61
2016-12-08T17:22:15.908Z,8.63
2016-12-08T17:22:56.392Z,8.6
2016-12-08T17:23:36.911Z,8.6
2016-12-08T17:24:17.445Z,8.6
2016-12-08T17:24:57.950Z,8.6
2016-12-08T17:25:38.433Z,8.63
2016-12-08T17:26:18.913Z,8.64
2016-12-08T17:26:59.387Z,8.63
2016-12-08T17:27:39.849Z,8.63
2016-12-08T17:28:20.365Z,8.63
2016-12-08T17:29:00.861Z,8.66
2016-12-08T17:29:41.377Z,8.61
2016-12-08T17:30:21.858Z,8.63
2016-12-08T17:31:02.343Z,8.6
2016-12-08T17:31:42.821Z,8.61
2016-12-08T17:32:23.333Z,8.55
2016-12-08T17:33:03.791Z,8.61
2016-12-08T17:33:44.276Z,8.64
2016-12-08T17:34:24.715Z,8.53
2016-12-08T17:35:05.247Z,8.63
2016-12-08T17:35:45.724Z,8.6
2016-12-08T17:36:26.173Z,8.6
2016-12-08T17:37:06.712Z,8.56
2016-12-08T17:37:47.154Z,8.63
2016-12-08T17:38:27.626Z,8.56
2016-12-08T17:39:08.144Z,8.64
2016-12-08T17:39:48.631Z,8.66
2016-12-08T17:40:29.096Z,8.63
2016-12-08T17:41:09.643Z,8.63
2016-12-08T17:41:50.079Z,8.63
2016-12-08T17:42:30.590Z,8.55
2016-12-08T17:43:11.135Z,8.64
2016-12-08T17:43:51.565Z,8.55
2016-12-08T17:44:32.041Z,8.56
2016-12-08T17:45:12.564Z,8.71
2016-12-08T17:45:53.035Z,8.56
2016-12-08T17:46:33.479Z,8.7
2016-12-08T17:47:13.986Z,8.61
2016-12-08T17:47:54.430Z,8.69
2016-12-08T17:48:34.917Z,8.6
2016-12-08T17:49:15.431Z,8.7
2016-12-08T17:49:55.889Z,8.7
2016-12-08T17:50:36.396Z,8.7
2016-12-08T17:51:16.894Z,8.66
2016-12-08T17:51:57.344Z,8.71
2016-12-08T17:52:37.801Z,8.74
2016-12-08T17:53:18.294Z,8.73
2016-12-08T17:53:58.739Z,8.7
2016-12-08T17:54:39.271Z,8.7
2016-12-08T17:55:19.690Z,8.76
2016-12-08T17:56:00.218Z,8.73
2016-12-08T17:56:40.660Z,8.71
2016-12-08T17:57:21.194Z,8.82
2016-12-08T17:58:01.704Z,8.74
2016-12-08T17:58:42.133Z,8.79
2016-12-08T17:59:22.606Z,8.78
2016-12-08T18:00:03.081Z,8.76
2016-12-08T18:00:43.605Z,8.81
2016-12-08T18:01:24.081Z,8.7
2016-12-08T18:02:04.521Z,8.78
2016-12-08T18:02:45.116Z,8.73
2016-12-08T18:03:25.594Z,8.74
2016-12-08T18:04:06.093Z,8.78
2016-12-08T18:04:46.550Z,8.74
2016-12-08T18:05:27.036Z,8.7
2016-12-08T18:06:07.501Z,8.7
2016-12-08T18:06:48.035Z,8.73
2016-12-08T18:07:28.549Z,8.74
2016-12-08T18:08:09.010Z,8.78
2016-12-08T18:08:49.500Z,8.73
2016-12-08T18:09:30.035Z,8.73
2016-12-08T18:10:10.485Z,8.73
2016-12-08T18:10:50.980Z,8.71
2016-12-08T18:11:31.485Z,8.67
2016-12-08T18:12:11.989Z,8.69
2016-12-08T18:12:52.443Z,8.63
2016-12-08T18:13:32.930Z,8.63
2016-12-08T18:14:13.468Z,8.61
2016-12-08T18:14:53.942Z,8.49
2016-12-08T18:15:34.404Z,8.63
2016-12-08T18:16:14.885Z,8.58
2016-12-08T18:16:55.426Z,8.55
2016-12-08T18:17:35.844Z,8.48
2016-12-08T18:18:16.385Z,8.49
2016-12-08T18:18:56.989Z,8.51
2016-12-08T18:19:37.434Z,8.55
2016-12-08T18:20:17.970Z,8.49
2016-12-08T18:20:58.431Z,8.44
2016-12-08T18:21:38.920Z,8.41
2016-12-08T18:22:19.392Z,8.42
2016-12-08T18:22:59.878Z,8.45
2016-12-08T18:23:40.388Z,8.45
2016-12-08T18:24:20.855Z,8.37
2016-12-08T18:25:01.316Z,8.45
2016-12-08T18:27:01.956Z,8.44
2016-12-08T18:27:50.746Z,8.45
2016-12-08T18:28:39.080Z,8.31
2016-12-08T18:29:27.611Z,8.33
2016-12-08T18:30:16.465Z,8.27
2016-12-08T18:31:04.901Z,8.33
2016-12-08T18:31:54.023Z,8.34
2016-12-08T18:32:42.578Z,8.33
2016-12-08T18:33:31.308Z,8.36
2016-12-08T18:34:19.881Z,8.31
2016-12-08T18:35:08.533Z,8.36